Flight Track Log - Related Links

Times and Time Zones

All times are in EDT time to prevent confusion due to time zone crossing. See the AFL150 flight status page for this flight to view local times or setup timezone preferences in your user account.

Time Position Orientation Groundspeed Altitude Reporting Facility
EDT Latitude Longitude Course Direction KTS MPH feet Rate Location/Type
Tue 06:21:00 AM 56.2092 36.7360 307° West  Level Estimated
Tue 06:22:00 AM 56.2852 36.5490 306° West  Level Estimated
Tue 06:23:00 AM 56.3609 36.3613 306° West  Level Estimated
Tue 06:24:00 AM 56.4364 36.1727 306° West  Level Estimated
Tue 06:25:00 AM 56.5115 35.9835 306° West  Level Estimated
Tue 06:26:00 AM 56.5864 35.7935 306° West  Level Estimated
Tue 06:27:00 AM 56.6610 35.6027 305° West  Level Estimated
Tue 06:28:00 AM 56.7352 35.4112 305° West  Level Estimated
Tue 06:29:00 AM 56.8092 35.2189 305° West  Level Estimated
Tue 06:30:00 AM 56.8829 35.0259 305° West  Level Estimated
Tue 06:31:00 AM 56.9563 34.8321 305° West  Level Estimated
Tue 06:32:00 AM 57.0294 34.6375 305° West  Level Estimated
Tue 06:33:00 AM 57.1022 34.4422 305° West  Level Estimated
Tue 06:34:00 AM 57.1747 34.2461 304° West  Level Estimated
Tue 06:35:00 AM 57.2469 34.0493 304° West  Level Estimated
Tue 06:36:00 AM 57.3187 33.8516 304° West  Level Estimated
Tue 06:37:00 AM 57.3903 33.6532 304° West  Level Estimated
Tue 06:38:00 AM 57.4616 33.4540 304° West  Level Estimated
Tue 06:39:00 AM 57.5325 33.2541 304° West  Level Estimated
Tue 06:40:00 AM 57.6031 33.0533 303° West  Level Estimated
Tue 06:41:00 AM 57.6734 32.8518 303° West  Level Estimated
Tue 06:42:00 AM 57.7434 32.6495 303° West  Level Estimated
Tue 06:43:00 AM 57.8130 32.4465 303° West  Level Estimated
Tue 06:44:00 AM 57.8823 32.2426 303° West  Level Estimated
Tue 06:45:00 AM 57.9513 32.0380 302° West  Level Estimated
Tue 06:46:00 AM 58.0200 31.8325 302° West  Level Estimated
Tue 06:47:00 AM 58.0883 31.6263 302° West  Level Estimated
Tue 06:48:00 AM 58.1563 31.4193 302° West  Level Estimated
Tue 06:49:00 AM 58.2240 31.2115 302° West  Level Estimated
Tue 06:50:00 AM 58.2913 31.0029 302° West  Level Estimated
Tue 06:51:00 AM 58.3583 30.7935 301° West  Level Estimated
Tue 06:52:00 AM 58.4249 30.5833 301° West  Level Estimated
Tue 06:53:00 AM 58.4912 30.3724 301° West  Level Estimated
Tue 06:54:00 AM 58.5572 30.1606 301° West  Level Estimated
Tue 06:55:00 AM 58.6228 29.9480 301° West  Level Estimated
Tue 06:56:00 AM 58.6880 29.7347 301° West  Level Estimated
Tue 06:57:00 AM 58.7529 29.5205 300° West  Level Estimated
Tue 06:58:00 AM 58.8174 29.3055 300° West  Level Estimated
Tue 06:59:00 AM 58.8816 29.0898 300° West  Level Estimated
Tue 07:00:00 AM 58.9454 28.8732 300° West  Level Estimated
Tue 07:01:00 AM 59.0089 28.6559 300° West  Level Estimated
Tue 07:02:00 AM 59.0720 28.4377 299° West  Level Estimated
Tue 07:03:00 AM 59.1347 28.2188 299° West  Level Estimated
Tue 07:04:00 AM 59.1970 27.9990 299° West  Level Estimated
Tue 07:05:00 AM 59.2590 27.7784 299° West  Level Estimated
Tue 07:06:00 AM 59.3206 27.5571 299° West  Level Estimated
Tue 07:07:00 AM 59.3818 27.3349 298° West  Level Estimated
Tue 07:08:00 AM 59.4427 27.1119 298° West  Level Estimated
Tue 07:09:00 AM 59.5032 26.8881 298° West  Level Estimated
Tue 07:10:00 AM 59.5632 26.6636 298° West  Level Estimated
Tue 07:11:00 AM 59.6229 26.4382 298° West  Level Estimated
Tue 07:12:00 AM 59.6822 26.2120 298° West  Level Estimated
Tue 07:13:00 AM 59.7412 25.9851 297° West  Level Estimated
Tue 07:14:00 AM 59.7997 25.7573 297° West  Level Estimated
Tue 07:15:00 AM 59.8578 25.5287 297° West  Level Estimated
Tue 07:16:00 AM 59.9156 25.2994 297° West  Level Estimated
Tue 07:17:00 AM 59.9729 25.0692 297° West  Level Estimated
Tue 07:17:02 AM 59.9356 26.4456 288° West 493 567 34,000  Level FlightAware ADS-B
Tue 07:17:41 AM 59.9682 26.2854 295° West 497 572 34,000  Level FlightAware ADS-B
Tue 07:18:31 AM 60.0270 26.0823 304° West 502 578 34,000  Level FlightAware ADS-B
Tue 07:19:22 AM 60.0980 25.8988 304° West 502 578 34,000  Level FlightAware ADS-B
Tue 07:20:02 AM 60.1375 25.7274 293° West 498 573 34,000  Level FlightAware ADS-B
Tue 07:20:34 AM 60.1669 25.5930 294° West 497 572 34,000  Level FlightAware ADS-B
Tue 07:21:11 AM 60.2014 25.4341 294° West 497 572 34,000  Level FlightAware ADS-B
Tue 07:21:51 AM 60.2384 25.2682 294° West 496 571 34,000  Level FlightAware ADS-B
Tue 07:22:21 AM 60.2650 25.1480 294° West 497 572 34,000  Level FlightAware ADS-B
Tue 07:23:01 AM 60.3024 24.9772 294° West 496 571 34,000  Level FlightAware ADS-B
Tue 07:23:31 AM 60.3316 24.8430 294° West 497 572 34,000  Level FlightAware ADS-B
Tue 07:24:10 AM 60.3643 24.6910 293° West 498 573 34,000  Level FlightAware ADS-B
Tue 07:24:41 AM 60.3945 24.5503 293° West 497 572 34,000  Level FlightAware ADS-B
Tue 07:25:12 AM 60.4225 24.4190 293° West 495 570 34,000  Level FlightAware ADS-B
Tue 07:26:02 AM 60.4692 24.2043 294° West 496 571 34,000  Level FlightAware ADS-B
Tue 07:26:42 AM 60.5116 24.0427 299° West 498 573 34,000  Level FlightAware ADS-B
Tue 07:27:13 AM 60.5462 23.9161 299° West 498 573 34,000  Level FlightAware ADS-B
Tue 07:27:53 AM 60.5897 23.7520 298° West 496 571 34,000  Level FlightAware ADS-B
Tue 07:28:32 AM 60.6317 23.5908 298° West 495 570 34,000  Level FlightAware ADS-B
Tue 07:29:02 AM 60.6642 23.4657 298° West 494 568 34,000  Level FlightAware ADS-B
Tue 07:29:43 AM 60.7066 23.3007 298° West 491 565 34,000  Level FlightAware ADS-B
Tue 07:30:22 AM 60.7469 23.1430 298° West 488 562 34,000  Level FlightAware ADS-B
Tue 07:31:03 AM 60.7884 22.9797 297° West 486 559 34,000  Level FlightAware ADS-B
Tue 07:31:33 AM 60.8173 22.8647 297° West 485 558 34,000  Level FlightAware ADS-B
Tue 07:32:07 AM 60.8553 22.7134 297° West 483 556 34,000  Level FlightAware ADS-B
Tue 07:32:42 AM 60.8907 22.5707 297° West 480 552 34,000  Level FlightAware ADS-B
Tue 07:33:20 AM 60.9299 22.4127 297° West 479 551 34,000  Level FlightAware ADS-B
Tue 07:33:52 AM 60.9578 22.3033 300° West 478 550 34,000  Level FlightAware ADS-B
Tue 07:34:23 AM 60.9990 22.1744 305° West 481 554 34,000  Level FlightAware ADS-B
Tue 07:34:50 AM 61.0408 22.0896 319° Northwest 487 560 34,000  Level FlightAware ADS-B
Tue 07:35:53 AM 61.1347 21.9090 315° West 486 559 34,000  Level FlightAware ADS-B
Tue 07:37:11 AM 61.2702 21.6294 315° West 487 560 34,000  Level FlightAware ADS-B
Tue 07:37:41 AM 61.3170 21.5334 315° West 488 562 34,000  Level FlightAware ADS-B
Tue 07:37:56 AM 61.3419 21.4821 297° West 481 554 34,000  Level FlightAware ADS-B
Tue 07:38:28 AM 61.3894 21.3843 315° West 489 563 34,000  Level FlightAware ADS-B
Tue 07:51:08 AM 62.5927 18.7395 312° West 477 549 34,000  Level FlightAware ADS-B
Tue 07:51:38 AM 62.6376 18.6340 312° West 476 548 34,000  Level FlightAware ADS-B
Tue 07:52:08 AM 62.6835 18.5261 313° West 481 554 34,000  Level FlightAware ADS-B
Tue 07:53:06 AM 62.7696 18.3219 313° West 481 554 34,000  Level FlightAware ADS-B
Tue 07:53:37 AM 62.8160 18.2114 312° West 482 555 34,000  Level FlightAware ADS-B
Tue 07:54:08 AM 62.8623 18.1003 312° West 484 557 34,000  Level FlightAware ADS-B
Tue 07:54:38 AM 62.9073 17.9918 312° West 482 555 34,000  Level FlightAware ADS-B
Tue 07:55:18 AM 62.9681 17.8444 312° West 482 555 34,000  Level FlightAware ADS-B
Tue 07:57:00 AM 63.0410 17.3898 290° West  Level Estimated
Tue 07:58:00 AM 63.0831 17.1213 289° West  Level Estimated
Tue 07:59:00 AM 63.1248 16.8520 289° West  Level Estimated
Tue 08:00:00 AM 63.1660 16.5819 289° West  Level Estimated
Tue 08:01:00 AM 63.2066 16.3111 289° West  Level Estimated
Tue 08:02:00 AM 63.2468 16.0396 288° West  Level Estimated
Tue 08:03:00 AM 63.2864 15.7673 288° West  Level Estimated
Tue 08:04:00 AM 63.3255 15.4942 288° West  Level Estimated
Tue 08:05:00 AM 63.3640 15.2204 288° West  Level Estimated
Tue 08:06:00 AM 63.4021 14.9459 287° West  Level Estimated
Tue 08:07:00 AM 63.4396 14.6706 287° West  Level Estimated
Tue 08:08:00 AM 63.4766 14.3946 287° West  Level Estimated
Tue 08:09:00 AM 63.5130 14.1179 287° West  Level Estimated
Tue 08:10:00 AM 63.5579 13.8472 291° West  Level FlightAware Approximate
Tue 08:11:00 AM 63.6023 13.5756 290° West  Level FlightAware Approximate
Tue 08:12:00 AM 63.6462 13.3031 290° West  Level FlightAware Approximate
Tue 08:13:00 AM 63.6895 13.0298 290° West  Level FlightAware Approximate
Tue 08:14:00 AM 63.7324 12.7557 290° West  Level FlightAware Approximate
Tue 08:15:00 AM 63.7747 12.4808 289° West  Level FlightAware Approximate
Tue 08:16:00 AM 63.8165 12.2050 289° West  Level FlightAware Approximate
Tue 08:17:00 AM 63.8577 11.9284 289° West  Level FlightAware Approximate
Tue 08:18:00 AM 63.8985 11.6510 289° West  Level FlightAware Approximate
Tue 08:19:00 AM 63.9387 11.3728 288° West  Level FlightAware Approximate
Tue 08:20:00 AM 63.9783 11.0938 288° West  Level FlightAware Approximate
Tue 08:21:00 AM 64.0174 10.8140 288° West  Level FlightAware Approximate
Tue 08:22:00 AM 64.0560 10.5335 288° West  Level FlightAware Approximate
Tue 08:23:00 AM 64.0941 10.2521 287° West  Level FlightAware Approximate
Tue 08:24:00 AM 64.1316 9.9700 287° West  Level FlightAware Approximate
Tue 08:25:00 AM 64.1685 9.6872 287° West  Level FlightAware Approximate
Tue 08:26:00 AM 64.2050 9.4036 287° West  Level FlightAware Approximate
Tue 08:27:00 AM 64.2408 9.1193 286° West  Level FlightAware Approximate
Tue 08:28:00 AM 64.2761 8.8342 286° West  Level FlightAware Approximate
Tue 08:29:00 AM 64.3109 8.5484 286° West  Level FlightAware Approximate
Tue 08:30:00 AM 64.3450 8.2619 286° West  Level FlightAware Approximate
Tue 08:31:00 AM 64.3787 7.9746 285° West  Level FlightAware Approximate
Tue 08:32:00 AM 64.4117 7.6867 285° West  Level FlightAware Approximate
Tue 08:33:00 AM 64.4442 7.3981 285° West  Level FlightAware Approximate
Tue 08:34:00 AM 64.4762 7.1088 284° West  Level FlightAware Approximate
Tue 08:35:00 AM 64.5075 6.8189 284° West  Level FlightAware Approximate
Tue 08:36:00 AM 64.5383 6.5283 284° West  Level FlightAware Approximate
Tue 08:37:00 AM 64.5685 6.2370 284° West  Level FlightAware Approximate
Tue 08:38:00 AM 64.5982 5.9451 283° West  Level FlightAware Approximate
Tue 08:39:00 AM 64.6273 5.6526 283° West  Level FlightAware Approximate
Tue 08:40:00 AM 64.6557 5.3594 283° West  Level FlightAware Approximate
Tue 08:41:00 AM 64.6836 5.0656 283° West  Level FlightAware Approximate
Tue 08:42:00 AM 64.7110 4.7713 282° West  Level FlightAware Approximate
Tue 08:43:00 AM 64.7377 4.4763 282° West  Level FlightAware Approximate
Tue 08:44:00 AM 64.7638 4.1808 282° West  Level FlightAware Approximate
Tue 08:45:00 AM 64.7894 3.8847 282° West  Level FlightAware Approximate
Tue 08:46:00 AM 64.8144 3.5880 281° West  Level FlightAware Approximate
Tue 08:47:00 AM 64.8387 3.2908 281° West  Level FlightAware Approximate
Tue 08:48:00 AM 64.8625 2.9931 281° West  Level FlightAware Approximate
Tue 08:49:00 AM 64.8857 2.6948 281° West  Level FlightAware Approximate
Tue 08:50:00 AM 64.9083 2.3961 280° West  Level FlightAware Approximate
Tue 08:51:00 AM 64.9303 2.0968 280° West  Level FlightAware Approximate
Tue 08:52:00 AM 64.9517 1.7971 280° West  Level FlightAware Approximate
Tue 08:53:00 AM 64.9725 1.4969 279° West  Level FlightAware Approximate
Tue 08:54:00 AM 64.9926 1.1962 279° West  Level FlightAware Approximate
Tue 08:55:00 AM 65.0122 0.8950 279° West  Level FlightAware Approximate
Tue 08:56:00 AM 65.0312 0.5935 279° West  Level FlightAware Approximate
Tue 08:57:00 AM 65.0495 0.2915 278° West  Level FlightAware Approximate
Tue 08:58:00 AM 65.0676 -0.0141 279° West  Level FlightAware Approximate
Tue 08:59:00 AM 65.0869 -0.3162 279° West  Level FlightAware Approximate
Tue 09:00:00 AM 65.1056 -0.6187 278° West  Level FlightAware Approximate
Tue 09:01:00 AM 65.1237 -0.9216 278° West  Level FlightAware Approximate
Tue 09:02:00 AM 65.1412 -1.2249 278° West  Level FlightAware Approximate
Tue 09:03:00 AM 65.1581 -1.5286 278° West  Level FlightAware Approximate
Tue 09:04:00 AM 65.1744 -1.8327 277° West  Level FlightAware Approximate
Tue 09:05:00 AM 65.1900 -2.1372 277° West  Level FlightAware Approximate
Tue 09:06:00 AM 65.2050 -2.4420 277° West  Level FlightAware Approximate
Tue 09:07:00 AM 65.2195 -2.7471 277° West  Level FlightAware Approximate
Tue 09:08:00 AM 65.2333 -3.0526 276° West  Level FlightAware Approximate
Tue 09:09:00 AM 65.2464 -3.3584 276° West  Level FlightAware Approximate
Tue 09:10:00 AM 65.2590 -3.6645 276° West  Level FlightAware Approximate
Tue 09:11:00 AM 65.2709 -3.9708 275° West  Level FlightAware Approximate
Tue 09:12:00 AM 65.2822 -4.2775 275° West  Level FlightAware Approximate
Tue 09:13:00 AM 65.2929 -4.5844 275° West  Level FlightAware Approximate
Tue 09:14:00 AM 65.3030 -4.8915 275° West  Level FlightAware Approximate
Tue 09:15:00 AM 65.3124 -5.1989 274° West  Level FlightAware Approximate
Tue 09:16:00 AM 65.3212 -5.5064 274° West  Level FlightAware Approximate
Tue 09:17:00 AM 65.3294 -5.8142 274° West  Level FlightAware Approximate
Tue 09:18:00 AM 65.3370 -6.1222 274° West  Level FlightAware Approximate
Tue 09:19:00 AM 65.3439 -6.4303 273° West  Level FlightAware Approximate
Tue 09:20:00 AM 65.3502 -6.7386 273° West  Level FlightAware Approximate
Tue 09:21:00 AM 65.3558 -7.0470 273° West  Level FlightAware Approximate
Tue 09:22:00 AM 65.3609 -7.3556 272° West  Level FlightAware Approximate
Tue 09:23:00 AM 65.3653 -7.6642 272° West  Level FlightAware Approximate
Tue 09:24:00 AM 65.3691 -7.9730 272° West  Level FlightAware Approximate
Tue 09:25:00 AM 65.3722 -8.2818 272° West  Level FlightAware Approximate
Tue 09:26:00 AM 65.3747 -8.5907 271° West  Level FlightAware Approximate
Tue 09:27:00 AM 65.3766 -8.8997 271° West  Level FlightAware Approximate
Tue 09:28:00 AM 65.3779 -9.2087 271° West  Level FlightAware Approximate
Tue 09:29:00 AM 65.3785 -9.5177 270° West  Level FlightAware Approximate
Tue 09:30:00 AM 65.3785 -9.8267 270° West  Level FlightAware Approximate
Tue 09:31:00 AM 65.3779 -10.1357 270° West  Level FlightAware Approximate
Tue 09:32:00 AM 65.3766 -10.4447 270° West  Level FlightAware Approximate
Tue 09:33:00 AM 65.3747 -10.7537 269° West  Level FlightAware Approximate
Tue 09:34:00 AM 65.3722 -11.0626 269° West  Level FlightAware Approximate
Tue 09:35:00 AM 65.3690 -11.3714 269° West  Level FlightAware Approximate
Tue 09:36:00 AM 65.3652 -11.6802 268° West  Level FlightAware Approximate
Tue 09:37:00 AM 65.3608 -11.9888 268° West  Level FlightAware Approximate
Tue 09:38:00 AM 65.3557 -12.2973 268° West  Level FlightAware Approximate
Tue 09:39:00 AM 65.3500 -12.6058 268° West  Level FlightAware Approximate
Tue 09:40:00 AM 65.3437 -12.9141 267° West  Level FlightAware Approximate
Tue 09:41:00 AM 65.3368 -13.2222 267° West  Level FlightAware Approximate
Tue 09:42:00 AM 65.3292 -13.5301 267° West  Level FlightAware Approximate
Tue 09:43:00 AM 65.3210 -13.8379 266° West  Level FlightAware Approximate
Tue 09:44:00 AM 65.3122 -14.1455 266° West  Level FlightAware Approximate
Tue 09:45:00 AM 65.3028 -14.4528 266° West  Level FlightAware Approximate
Tue 09:46:00 AM 65.2927 -14.7600 266° West  Level FlightAware Approximate
Tue 09:47:00 AM 65.2820 -15.0668 265° West  Level FlightAware Approximate
Tue 09:48:00 AM 65.2707 -15.3735 265° West  Level FlightAware Approximate
Tue 09:49:00 AM 65.2587 -15.6798 265° West  Level FlightAware Approximate
Tue 09:50:00 AM 65.2461 -15.9859 265° West  Level FlightAware Approximate
Tue 09:51:00 AM 65.2330 -16.2917 264° West  Level FlightAware Approximate
Tue 09:52:00 AM 65.2192 -16.5972 264° West  Level FlightAware Approximate
Tue 09:53:00 AM 65.2047 -16.9023 264° West  Level FlightAware Approximate
Tue 09:54:00 AM 65.1897 -17.2071 263° West  Level FlightAware Approximate
Tue 09:55:00 AM 65.1740 -17.5116 263° West  Level FlightAware Approximate
Tue 09:56:00 AM 65.1577 -17.8156 263° West  Level FlightAware Approximate
Tue 09:57:00 AM 65.1408 -18.1193 263° West  Level FlightAware Approximate
Tue 09:58:00 AM 65.1233 -18.4226 262° West  Level FlightAware Approximate
Tue 09:59:00 AM 65.1052 -18.7255 262° West  Level FlightAware Approximate
Tue 10:00:00 AM 65.0865 -19.0280 262° West  Level FlightAware Approximate
Tue 10:01:00 AM 65.0672 -19.3301 261° West  Level FlightAware Approximate
Tue 10:02:00 AM 65.0472 -19.6317 261° West  Level FlightAware Approximate
Tue 10:03:00 AM 65.0267 -19.9328 261° West  Level FlightAware Approximate
Tue 10:04:00 AM 65.0055 -20.2335 261° West  Level FlightAware Approximate
Tue 10:05:00 AM 64.9837 -20.5337 260° West  Level FlightAware Approximate
Tue 10:06:00 AM 64.9614 -20.8334 260° West  Level FlightAware Approximate
Tue 10:07:00 AM 64.9384 -21.1326 260° West  Level FlightAware Approximate
Tue 10:08:00 AM 64.9149 -21.4313 260° West  Level FlightAware Approximate
Tue 10:09:00 AM 64.8907 -21.7294 259° West  Level FlightAware Approximate
Tue 10:10:00 AM 64.8660 -22.0270 259° West  Level FlightAware Approximate
Tue 10:11:00 AM 64.8406 -22.3241 259° West  Level FlightAware Approximate
Tue 10:12:00 AM 64.8147 -22.6205 259° West  Level FlightAware Approximate
Tue 10:13:00 AM 64.7881 -22.9164 258° West  Level FlightAware Approximate
Tue 10:14:00 AM 64.7610 -23.2118 258° West  Level FlightAware Approximate
Tue 10:15:00 AM 64.7333 -23.5065 258° West  Level FlightAware Approximate
Tue 10:16:00 AM 64.7050 -23.8006 257° West  Level FlightAware Approximate
Tue 10:17:00 AM 64.6762 -24.0941 257° West  Level FlightAware Approximate
Tue 10:18:00 AM 64.6467 -24.3869 257° West  Level FlightAware Approximate
Tue 10:19:00 AM 64.6167 -24.6791 257° West  Level FlightAware Approximate
Tue 10:20:00 AM 64.5861 -24.9707 256° West  Level FlightAware Approximate
Tue 10:21:00 AM 64.5549 -25.2616 256° West  Level FlightAware Approximate
Tue 10:22:00 AM 64.5232 -25.5518 256° West  Level FlightAware Approximate
Tue 10:23:00 AM 64.4909 -25.8414 256° West  Level FlightAware Approximate
Tue 10:24:00 AM 64.4580 -26.1303 255° West  Level FlightAware Approximate
Tue 10:25:00 AM 64.4245 -26.4184 255° West  Level FlightAware Approximate
Tue 10:26:00 AM 64.3905 -26.7059 255° West  Level FlightAware Approximate
Tue 10:27:00 AM 64.3560 -26.9926 255° West  Level FlightAware Approximate
Tue 10:28:00 AM 64.3208 -27.2786 254° West  Level FlightAware Approximate
Tue 10:29:00 AM 64.2851 -27.5639 254° West  Level FlightAware Approximate
Tue 10:30:00 AM 64.2489 -27.8484 254° West  Level FlightAware Approximate
Tue 10:31:00 AM 64.2121 -28.1322 254° West  Level FlightAware Approximate
Tue 10:32:00 AM 64.1748 -28.4153 253° West  Level FlightAware Approximate
Tue 10:33:00 AM 64.1369 -28.6975 253° West  Level FlightAware Approximate
Tue 10:34:00 AM 64.0984 -28.9790 253° West  Level FlightAware Approximate
Tue 10:35:00 AM 64.0595 -29.2597 253° West  Level FlightAware Approximate
Tue 10:36:00 AM 64.0200 -29.5396 252° West  Level FlightAware Approximate
Tue 10:37:00 AM 63.9799 -29.8188 252° West  Level FlightAware Approximate
Tue 10:38:00 AM 63.9393 -30.0971 252° West  Level FlightAware Approximate
Tue 10:39:00 AM 63.8982 -30.3746 252° West  Level FlightAware Approximate
Tue 10:40:00 AM 63.8566 -30.6513 251° West  Level FlightAware Approximate
Tue 10:41:00 AM 63.8144 -30.9271 251° West  Level FlightAware Approximate
Tue 10:42:00 AM 63.7717 -31.2022 251° West  Level FlightAware Approximate
Tue 10:43:00 AM 63.7285 -31.4764 251° West  Level FlightAware Approximate
Tue 10:44:00 AM 63.6847 -31.7497 250° West  Level FlightAware Approximate
Tue 10:45:00 AM 63.6405 -32.0222 250° West  Level FlightAware Approximate
Tue 10:46:00 AM 63.5957 -32.2939 250° West  Level FlightAware Approximate
Tue 10:47:00 AM 63.5504 -32.5647 250° West  Level FlightAware Approximate
Tue 10:48:00 AM 63.5047 -32.8346 249° West  Level FlightAware Approximate
Tue 10:49:00 AM 63.4584 -33.1037 249° West  Level FlightAware Approximate
Tue 10:50:00 AM 63.4115 -33.3719 249° West  Level FlightAware Approximate
Tue 10:51:00 AM 63.3643 -33.6392 249° West  Level FlightAware Approximate
Tue 10:52:00 AM 63.3165 -33.9056 248° West  Level FlightAware Approximate
Tue 10:53:00 AM 63.2682 -34.1711 248° West  Level FlightAware Approximate
Tue 10:54:00 AM 63.2194 -34.4358 248° West  Level FlightAware Approximate
Tue 10:55:00 AM 63.1701 -34.6995 248° West  Level FlightAware Approximate
Tue 10:56:00 AM 63.1203 -34.9624 247° West  Level FlightAware Approximate
Tue 10:57:00 AM 63.0701 -35.2243 247° West  Level FlightAware Approximate
Tue 10:58:00 AM 63.0194 -35.4854 247° West  Level FlightAware Approximate
Tue 10:59:00 AM 62.9682 -35.7455 247° West  Level FlightAware Approximate
Tue 11:00:00 AM 62.9165 -36.0047 246° West  Level FlightAware Approximate
Tue 11:01:00 AM 62.8643 -36.2630 246° West  Level FlightAware Approximate
Tue 11:02:00 AM 62.8118 -36.5206 246° West  Level FlightAware Approximate
Tue 11:03:00 AM 62.7589 -36.7772 246° West  Level FlightAware Approximate
Tue 11:04:00 AM 62.7056 -37.0330 246° West  Level FlightAware Approximate
Tue 11:05:00 AM 62.6517 -37.2878 245° Southwest  Level FlightAware Approximate
Tue 11:06:00 AM 62.5975 -37.5417 245° Southwest  Level FlightAware Approximate
Tue 11:07:00 AM 62.5427 -37.7946 245° Southwest  Level FlightAware Approximate
Tue 11:08:00 AM 62.4875 -38.0466 245° Southwest  Level FlightAware Approximate
Tue 11:09:00 AM 62.4319 -38.2977 245° Southwest  Level FlightAware Approximate
Tue 11:10:00 AM 62.3758 -38.5479 244° Southwest  Level FlightAware Approximate
Tue 11:11:00 AM 62.3192 -38.7971 244° Southwest  Level FlightAware Approximate
Tue 11:12:00 AM 62.2622 -39.0454 244° Southwest  Level FlightAware Approximate
Tue 11:13:00 AM 62.2048 -39.2927 244° Southwest  Level FlightAware Approximate
Tue 11:14:00 AM 62.1469 -39.5391 243° Southwest  Level FlightAware Approximate
Tue 11:15:00 AM 62.0886 -39.7846 243° Southwest  Level FlightAware Approximate
Tue 11:16:00 AM 62.0299 -40.0291 243° Southwest  Level FlightAware Approximate
Tue 11:17:00 AM 61.9707 -40.2726 243° Southwest  Level FlightAware Approximate
Tue 11:18:00 AM 61.9111 -40.5152 243° Southwest  Level FlightAware Approximate
Tue 11:19:00 AM 61.8511 -40.7569 242° Southwest  Level FlightAware Approximate
Tue 11:20:00 AM 61.7906 -40.9976 242° Southwest  Level FlightAware Approximate
Tue 11:21:00 AM 61.7298 -41.2374 242° Southwest  Level FlightAware Approximate
Tue 11:22:00 AM 61.6685 -41.4762 242° Southwest  Level FlightAware Approximate
Tue 11:23:00 AM 61.6068 -41.7141 241° Southwest  Level FlightAware Approximate
Tue 11:24:00 AM 61.5447 -41.9510 241° Southwest  Level FlightAware Approximate
Tue 11:25:00 AM 61.4822 -42.1870 241° Southwest  Level FlightAware Approximate
Tue 11:26:00 AM 61.4193 -42.4220 241° Southwest  Level FlightAware Approximate
Tue 11:27:00 AM 61.3559 -42.6561 241° Southwest  Level FlightAware Approximate
Tue 11:28:00 AM 61.2920 -42.8889 240° Southwest  Level FlightAware Approximate
Tue 11:29:00 AM 61.2272 -43.1204 240° Southwest  Level FlightAware Approximate
Tue 11:30:00 AM 61.1621 -43.3509 240° Southwest  Level FlightAware Approximate
Tue 11:31:00 AM 61.0966 -43.5804 240° Southwest  Level FlightAware Approximate
Tue 11:32:00 AM 61.0307 -43.8090 239° Southwest  Level FlightAware Approximate
Tue 11:33:00 AM 60.9644 -44.0366 239° Southwest  Level FlightAware Approximate
Tue 11:34:00 AM 60.8978 -44.2633 239° Southwest  Level FlightAware Approximate
Tue 11:35:00 AM 60.8307 -44.4891 239° Southwest  Level FlightAware Approximate
Tue 11:36:00 AM 60.7633 -44.7139 239° Southwest  Level FlightAware Approximate
Tue 11:37:00 AM 60.6955 -44.9377 238° Southwest  Level FlightAware Approximate
Tue 11:38:00 AM 60.6273 -45.1606 238° Southwest  Level FlightAware Approximate
Tue 11:39:00 AM 60.5588 -45.3826 238° Southwest  Level FlightAware Approximate
Tue 11:40:00 AM 60.4899 -45.6036 238° Southwest  Level FlightAware Approximate
Tue 11:41:00 AM 60.4206 -45.8237 238° Southwest  Level FlightAware Approximate
Tue 11:42:00 AM 60.3510 -46.0429 237° Southwest  Level FlightAware Approximate
Tue 11:43:00 AM 60.2810 -46.2611 237° Southwest  Level FlightAware Approximate
Tue 11:44:00 AM 60.2107 -46.4783 237° Southwest  Level FlightAware Approximate
Tue 11:45:00 AM 60.1400 -46.6947 237° Southwest  Level FlightAware Approximate
Tue 11:46:00 AM 60.0689 -46.9101 237° Southwest  Level FlightAware Approximate
Tue 11:47:00 AM 59.9975 -47.1246 236° Southwest  Level FlightAware Approximate
Tue 11:48:00 AM 59.9262 -47.3386 236° Southwest  Level FlightAware Approximate
Tue 11:49:00 AM 59.8547 -47.5521 236° Southwest  Level FlightAware Approximate
Tue 11:50:00 AM 59.7829 -47.7647 236° Southwest  Level FlightAware Approximate
Tue 11:51:00 AM 59.7108 -47.9764 236° Southwest  Level FlightAware Approximate
Tue 11:52:00 AM 59.6384 -48.1872 236° Southwest  Level FlightAware Approximate
Tue 11:53:00 AM 59.5656 -48.3970 236° Southwest  Level FlightAware Approximate
Tue 11:54:00 AM 59.4924 -48.6060 235° Southwest  Level FlightAware Approximate
Tue 11:55:00 AM 59.4190 -48.8140 235° Southwest  Level FlightAware Approximate
Tue 11:56:00 AM 59.3452 -49.0212 235° Southwest  Level FlightAware Approximate
Tue 11:57:00 AM 59.2711 -49.2274 235° Southwest  Level FlightAware Approximate
Tue 11:58:00 AM 59.1966 -49.4328 235° Southwest  Level FlightAware Approximate
Tue 11:59:00 AM 59.1218 -49.6372 235° Southwest  Level FlightAware Approximate
Tue 12:00:00 PM 59.0468 -49.8408 234° Southwest  Level FlightAware Approximate
Tue 12:01:00 PM 58.9714 -50.0434 234° Southwest  Level FlightAware Approximate
Tue 12:02:00 PM 58.8956 -50.2452 234° Southwest  Level FlightAware Approximate
Tue 12:03:00 PM 58.8196 -50.4461 234° Southwest  Level FlightAware Approximate
Tue 12:04:00 PM 58.7433 -50.6461 234° Southwest  Level FlightAware Approximate
Tue 12:05:00 PM 58.6666 -50.8452 234° Southwest  Level FlightAware Approximate
Tue 12:06:00 PM 58.5896 -51.0435 233° Southwest  Level FlightAware Approximate
Tue 12:07:00 PM 58.5124 -51.2409 233° Southwest  Level FlightAware Approximate
Tue 12:08:00 PM 58.4348 -51.4374 233° Southwest  Level FlightAware Approximate
Tue 12:09:00 PM 58.3569 -51.6330 233° Southwest  Level FlightAware Approximate
Tue 12:10:00 PM 58.2788 -51.8278 233° Southwest  Level FlightAware Approximate
Tue 12:11:00 PM 58.2003 -52.0218 233° Southwest  Level FlightAware Approximate
Tue 12:12:00 PM 58.1216 -52.2148 232° Southwest  Level FlightAware Approximate
Tue 12:13:00 PM 58.0425 -52.4070 232° Southwest  Level FlightAware Approximate
Tue 12:14:00 PM 57.9631 -52.5982 232° Southwest  Level FlightAware Approximate
Tue 12:15:00 PM 57.8829 -52.7880 232° Southwest  Level FlightAware Approximate
Tue 12:16:00 PM 57.8025 -52.9769 231° Southwest  Level FlightAware Approximate
Tue 12:17:00 PM 57.7218 -53.1649 231° Southwest  Level FlightAware Approximate
Tue 12:18:00 PM 57.6409 -53.3522 231° Southwest  Level FlightAware Approximate
Tue 12:19:00 PM 57.5596 -53.5386 231° Southwest  Level FlightAware Approximate
Tue 12:20:00 PM 57.4781 -53.7241 231° Southwest  Level FlightAware Approximate
Tue 12:21:00 PM 57.3963 -53.9088 231° Southwest  Level FlightAware Approximate
Tue 12:22:00 PM 57.3143 -54.0927 230° Southwest  Level FlightAware Approximate
Tue 12:23:00 PM 57.2319 -54.2758 230° Southwest  Level FlightAware Approximate
Tue 12:24:00 PM 57.1493 -54.4581 230° Southwest  Level FlightAware Approximate
Tue 12:25:00 PM 57.0665 -54.6395 230° Southwest  Level FlightAware Approximate
Tue 12:26:00 PM 56.9834 -54.8202 230° Southwest  Level FlightAware Approximate
Tue 12:27:00 PM 56.9000 -55.0000 230° Southwest  Level FlightAware Approximate
Tue 12:28:00 PM 56.8167 -55.1796 230° Southwest  Level FlightAware Approximate
Tue 12:29:00 PM 56.7331 -55.3583 230° Southwest  Level FlightAware Approximate
Tue 12:30:00 PM 56.6493 -55.5363 229° Southwest  Level FlightAware Approximate
Tue 12:31:00 PM 56.5550 -55.6872 221° Southwest  Level Estimated
Tue 12:32:00 PM 56.4569 -55.8431 221° Southwest  Level Estimated
Tue 12:33:00 PM 56.3587 -55.9981 221° Southwest  Level Estimated
Tue 12:34:00 PM 56.2603 -56.1523 221° Southwest  Level Estimated
Tue 12:35:00 PM 56.1616 -56.3058 221° Southwest  Level Estimated
Tue 12:36:00 PM 56.0628 -56.4584 221° Southwest  Level Estimated
Tue 12:37:00 PM 55.9638 -56.6103 221° Southwest  Level Estimated
Tue 12:38:00 PM 55.8646 -56.7614 221° Southwest  Level Estimated
Tue 12:39:00 PM 55.7653 -56.9117 220° Southwest  Level Estimated
Tue 12:40:00 PM 55.6657 -57.0613 220° Southwest  Level Estimated
Tue 12:41:00 PM 55.5660 -57.2101 220° Southwest  Level Estimated
Tue 12:42:00 PM 55.4661 -57.3582 220° Southwest  Level Estimated
Tue 12:43:00 PM 55.3660 -57.5055 220° Southwest  Level Estimated
Tue 12:44:00 PM 55.2657 -57.6520 220° Southwest  Level Estimated
Tue 12:45:00 PM 55.1653 -57.7978 220° Southwest  Level Estimated
Tue 12:46:00 PM 55.0647 -57.9429 220° Southwest  Level Estimated
Tue 12:47:00 PM 54.9639 -58.0873 219° Southwest  Level Estimated
Tue 12:48:00 PM 54.8629 -58.2309 219° Southwest  Level Estimated
Tue 12:49:00 PM 54.7618 -58.3738 219° Southwest  Level Estimated
Tue 12:50:00 PM 54.6605 -58.5160 219° Southwest  Level Estimated
Tue 12:51:00 PM 54.5590 -58.6575 219° Southwest  Level Estimated
Tue 12:52:00 PM 54.4574 -58.7983 219° Southwest  Level Estimated
Tue 12:53:00 PM 54.3556 -58.9384 219° Southwest  Level Estimated
Tue 12:54:00 PM 54.2537 -59.0778 219° Southwest  Level Estimated
Tue 12:55:00 PM 54.1516 -59.2165 219° Southwest  Level Estimated
Tue 12:56:00 PM 54.0493 -59.3545 218° Southwest  Level Estimated
Tue 12:57:00 PM 53.9469 -59.4919 218° Southwest  Level Estimated
Tue 12:58:00 PM 53.8443 -59.6286 218° Southwest  Level Estimated
Tue 12:59:00 PM 53.7416 -59.7646 218° Southwest  Level Estimated
Tue 01:00:00 PM 53.6387 -59.8999 218° Southwest  Level Estimated
Tue 01:01:00 PM 53.5357 -60.0346 218° Southwest  Level Estimated
Tue 01:02:00 PM 53.4325 -60.1687 218° Southwest  Level Estimated
Tue 01:03:00 PM 53.3291 -60.3020 218° Southwest  Level Estimated
Tue 01:04:00 PM 53.2257 -60.4348 218° Southwest  Level Estimated
Tue 01:04:29 PM 56.5667 -61.6500 217° Southwest 530 610 34,000  Level Gander Center
Tue 01:05:00 PM 53.1220 -60.5669 217° Southwest  Level Estimated
Tue 01:05:29 PM 56.4333 -61.7667 206° Southwest 500 575 34,000  Level Gander Center
Tue 01:06:00 PM 53.0182 -60.6983 217° Southwest  Level Estimated
Tue 01:06:29 PM 56.3167 -61.8500 202° Southwest 500 575 34,000  Level Gander Center
Tue 01:07:00 PM 52.9143 -60.8292 217° Southwest  Level Estimated
Tue 01:07:06 PM 56.2333 -61.9167 204° Southwest 500 575 34,000  Level Gander Center
Tue 01:08:00 PM 52.8103 -60.9594 217° Southwest  Level Estimated
Tue 01:08:06 PM 56.1167 -62.0333 209° Southwest 500 575 34,000  Level Gander Center
Tue 01:09:00 PM 52.7061 -61.0890 217° Southwest  Level Estimated
Tue 01:09:06 PM 55.9833 -62.1167 199° South 500 575 34,000  Level Gander Center
Tue 01:10:29 PM 55.8000 -62.2667 205° Southwest 500 575 34,000  Level Gander Center
Tue 01:11:29 PM 55.6833 -62.3833 209° Southwest 500 575 34,000  Level Gander Center
Tue 01:12:29 PM 55.5500 -62.4667 199° South 500 575 34,000  Level Gander Center
Tue 01:13:29 PM 55.4333 -62.5833 210° Southwest 500 575 34,000  Level Gander Center
Tue 01:14:29 PM 55.3000 -62.6833 203° Southwest 500 575 34,000  Level Gander Center
Tue 01:15:29 PM 55.1667 -62.7667 200° South 500 575 34,000  Level Gander Center
Tue 01:16:06 PM 55.0833 -62.8333 205° Southwest 500 575 34,000  Level Gander Center
Tue 01:17:29 PM 54.9167 -62.9667 205° Southwest 500 575 34,000  Level Gander Center
Tue 01:18:29 PM 54.7833 -63.0833 207° Southwest 500 575 34,000  Level Gander Center
Tue 01:19:29 PM 54.6667 -63.1667 202° Southwest 500 575 34,000  Level Gander Center
Tue 01:20:29 PM 54.5333 -63.2667 204° Southwest 500 575 34,000  Level Gander Center
Tue 01:21:29 PM 54.4000 -63.3500 200° South 490 564 34,000  Level Gander Center
Tue 01:22:29 PM 54.2833 -63.4500 207° Southwest 500 575 34,000  Level Gander Center
Tue 01:23:29 PM 54.1667 -63.5333 203° Southwest 490 564 34,000  Level Gander Center
Tue 01:24:29 PM 54.0333 -63.6500 207° Southwest 490 564 34,000  Level Gander Center
Tue 01:25:29 PM 53.9000 -63.7167 196° South 490 564 34,000  Level Gander Center
Tue 01:26:29 PM 53.7667 -63.8333 207° Southwest 500 575 34,000  Level Gander Center
Tue 01:27:29 PM 53.6500 -63.9000 199° South 490 564 34,000  Level Gander Center
Tue 01:28:29 PM 53.5167 -64.0167 207° Southwest 500 575 34,000  Level Gander Center
Tue 01:29:29 PM 53.4000 -64.0833 199° South 480 552 34,000  Level Gander Center
Tue 01:30:29 PM 53.2833 -64.1667 203° Southwest 470 541 34,000  Level Gander Center
Tue 01:31:29 PM 53.1667 -64.2333 199° South 470 541 34,000  Level Gander Center
Tue 01:32:29 PM 53.0333 -64.3333 204° Southwest 460 529 34,000  Level Gander Center
Tue 01:33:29 PM 52.9167 -64.4167 203° Southwest 470 541 34,000  Level Gander Center
Tue 01:34:29 PM 52.8000 -64.4833 199° South 460 529 34,000  Level Gander Center
Tue 01:35:29 PM 52.6833 -64.6000 211° Southwest 470 541 34,000  Level Gander Center
Tue 01:36:29 PM 52.5667 -64.6667 199° South 470 541 34,000  Level Gander Center
Tue 01:37:29 PM 52.4500 -64.7333 199° South 470 541 34,000  Level Gander Center
Tue 01:38:29 PM 52.3167 -64.8167 201° Southwest 460 529 34,000  Level Gander Center
Tue 01:39:29 PM 52.2000 -64.8833 199° South 460 529 34,000  Level Gander Center
Tue 01:40:29 PM 52.0833 -64.9833 208° Southwest 460 529 34,000  Level Gander Center
Tue 01:41:29 PM 51.9667 -65.0500 199° South 460 529 34,000  Level Gander Center
Tue 01:42:29 PM 51.8500 -65.1333 204° Southwest 460 529 34,000  Level Gander Center
Tue 01:43:29 PM 51.7333 -65.2000 199° South 450 518 34,000  Level Gander Center
Tue 01:44:29 PM 51.6167 -65.2667 200° South 450 518 34,000  Level Gander Center
Tue 01:45:29 PM 51.4833 -65.3667 205° Southwest 450 518 34,000  Level Gander Center
Tue 01:46:29 PM 51.3833 -65.4333 203° Southwest 450 518 34,000  Level Gander Center
Tue 01:47:29 PM 51.2667 -65.5000 200° South 450 518 34,000  Level Gander Center
Tue 01:48:29 PM 51.1500 -65.5833 204° Southwest 450 518 34,000  Level Gander Center
Tue 01:49:29 PM 51.0333 -65.6500 200° South 450 518 34,000  Level Gander Center
Tue 01:50:29 PM 50.9000 -65.7333 202° Southwest 450 518 34,000  Level Gander Center
Tue 01:51:29 PM 50.8000 -65.8000 203° Southwest 450 518 34,000  Level Gander Center
Tue 01:52:29 PM 50.6833 -65.8833 204° Southwest 450 518 34,000  Level Gander Center
Tue 01:53:29 PM 50.5667 -65.9500 200° South 450 518 34,000  Level Gander Center
Tue 01:54:29 PM 50.4333 -66.0167 198° South 450 518 34,000  Level Gander Center
Tue 01:55:29 PM 50.3167 -66.0833 200° South 460 529 34,000  Level Gander Center
Tue 01:56:29 PM 50.2167 -66.1667 208° Southwest 460 529 34,000  Level Gander Center
Tue 01:57:29 PM 50.0833 -66.2333 198° South 470 541 34,000  Level Gander Center
Tue 01:58:29 PM 49.9667 -66.3000 200° South 470 541 34,000  Level Gander Center
Tue 01:59:29 PM 49.8333 -66.3833 202° Southwest 480 552 34,000  Level Gander Center
Tue 02:00:29 PM 49.7167 -66.4500 200° South 480 552 34,000  Level Gander Center
Tue 02:01:29 PM 49.6000 -66.5167 200° South 480 552 34,000  Level Gander Center
Tue 02:02:29 PM 49.4667 -66.6167 206° Southwest 480 552 34,000  Level Gander Center
Tue 02:03:29 PM 49.3333 -66.6667 194° South 490 564 34,000  Level Gander Center
Tue 02:04:29 PM 49.2000 -66.7667 206° Southwest 490 564 34,000  Level Gander Center
Tue 02:05:29 PM 49.0833 -66.8167 196° South 500 575 34,000  Level Gander Center
Tue 02:06:29 PM 48.9500 -66.9167 206° Southwest 500 575 34,000  Level Gander Center
Tue 02:07:29 PM 48.8000 -66.9667 192° South 510 587 34,000  Level Gander Center
Tue 02:08:29 PM 48.6833 -67.0500 205° Southwest 510 587 34,000  Level Gander Center
Tue 02:09:29 PM 48.5500 -67.1500 206° Southwest 510 587 34,000  Level Gander Center
Tue 02:15:05 PM 47.8212 -67.5367 200° South 504 580 34,000  Level FlightAware ADS-B
Tue 02:17:53 PM 47.4518 -67.7362 200° South 500 575 34,000  Level FlightAware ADS-B
Tue 02:18:34 PM 47.3635 -67.7835 200° South 499 574 34,000  Level FlightAware ADS-B
Tue 02:19:19 PM 47.2674 -67.8347 200° South 499 574 34,000  Level FlightAware ADS-B
Tue 02:20:07 PM 47.1654 -67.8890 200° South 498 573 34,000  Level FlightAware ADS-B
Tue 02:20:46 PM 47.0785 -67.9349 200° South 494 568 34,000  Level FlightAware ADS-B
Tue 02:21:34 PM 46.9837 -68.0016 209° Southwest 466 536 34,000  Level FlightAware ADS-B
Tue 02:22:16 PM 46.9070 -68.0631 209° Southwest 463 533 34,000  Level FlightAware ADS-B
Tue 02:22:59 PM 46.8241 -68.1294 209° Southwest 462 532 34,000  Level FlightAware ADS-B
Tue 02:23:33 PM 46.7607 -68.1799 209° Southwest 461 531 34,000  Level FlightAware ADS-B
Tue 02:24:06 PM 46.7000 -68.2280 209° Southwest 462 532 34,000  Level FlightAware ADS-B (KBGR)
Tue 02:24:52 PM 46.6129 -68.2967 209° Southwest 461 531 34,000  Level FlightAware ADS-B
Tue 02:26:12 PM 46.4643 -68.4135 208° Southwest 461 531 34,000  Level FlightAware ADS-B (KBGR)
Tue 02:26:57 PM 46.3788 -68.4803 208° Southwest 459 528 34,000  Level FlightAware ADS-B (KBGR)
Tue 02:27:27 PM 46.3247 -68.5225 208° Southwest 459 528 34,000  Level FlightAware ADS-B
Tue 02:28:11 PM 46.2452 -68.5844 208° Southwest 463 533 34,000  Level FlightAware ADS-B (KBGR)
Tue 02:28:46 PM 46.1748 -68.6390 208° Southwest 464 534 34,000  Level FlightAware ADS-B
Tue 02:29:20 PM 46.1180 -68.6828 208° Southwest 464 534 34,000  Level FlightAware ADS-B (KBGR)
Tue 02:29:51 PM 46.0587 -68.7285 208° Southwest 465 535 34,000  Level FlightAware ADS-B (KBGR)
Tue 02:30:35 PM 45.9740 -68.7936 208° Southwest 464 534 34,000  Level FlightAware ADS-B (KBGR)
Tue 02:31:06 PM 45.9099 -68.8427 208° Southwest 465 535 34,000  Level FlightAware ADS-B
Tue 02:31:46 PM 45.8359 -68.8993 208° Southwest 465 535 34,000  Level FlightAware ADS-B
Tue 02:32:19 PM 45.7750 -68.9457 208° Southwest 464 534 34,000  Level FlightAware ADS-B
Tue 02:32:51 PM 45.7113 -68.9941 208° Southwest 463 533 34,000  Level FlightAware ADS-B
Tue 02:33:32 PM 45.6339 -69.0527 208° Southwest 463 533 34,000  Level FlightAware ADS-B (KBGR)
Tue 02:34:07 PM 45.5679 -69.1026 208° Southwest 462 532 34,000  Level FlightAware ADS-B
Tue 02:34:37 PM 45.5240 -69.1357 208° Southwest 462 532 34,000  Level FlightAware ADS-B (YSBK / BWU)
Tue 02:35:08 PM 45.4535 -69.1888 208° Southwest 463 533 34,000  Level FlightAware ADS-B (KBGR)
Tue 02:35:39 PM 45.3957 -69.2322 208° Southwest 463 533 34,000  Level FlightAware ADS-B (KBGR)
Tue 02:36:14 PM 45.3286 -69.2823 208° Southwest 464 534 34,000  Level FlightAware ADS-B
Tue 02:36:52 PM 45.2552 -69.3371 208° Southwest 464 534 34,000  Level FlightAware ADS-B (KBGR)
Tue 02:37:26 PM 45.1912 -69.3847 208° Southwest 464 534 34,000  Level FlightAware ADS-B
Tue 02:38:02 PM 45.1228 -69.4356 208° Southwest 464 534 34,000  Level FlightAware ADS-B (KBGR)
Tue 02:38:38 PM 45.0536 -69.4867 208° Southwest 462 532 34,000  Level FlightAware ADS-B
Tue 02:39:09 PM 44.9957 -69.5295 208° Southwest 460 529 34,000  Level FlightAware ADS-B (YSBK / BWU)
Tue 02:39:44 PM 44.9298 -69.5780 208° Southwest 458 527 34,000  Level FlightAware ADS-B
Tue 02:40:15 PM 44.8743 -69.6189 208° Southwest 458 527 34,000  Level FlightAware ADS-B
Tue 02:40:55 PM 44.7974 -69.6752 208° Southwest 459 528 34,000  Level FlightAware ADS-B (KBGR)
Tue 02:41:26 PM 44.7372 -69.7192 208° Southwest 459 528 34,000  Level FlightAware ADS-B
Tue 02:41:58 PM 44.6798 -69.7611 208° Southwest 460 529 34,000  Level FlightAware ADS-B
Tue 02:42:28 PM 44.6223 -69.8029 208° Southwest 460 529 34,000  Level FlightAware ADS-B
Tue 02:42:58 PM 44.5649 -69.8446 207° Southwest 459 528 34,000  Level FlightAware ADS-B
Tue 02:43:32 PM 44.5002 -69.8914 207° Southwest 458 527 34,000  Level FlightAware ADS-B (YSBK / BWU)
Tue 02:44:04 PM 44.4444 -69.9317 207° Southwest 458 527 34,000  Level FlightAware ADS-B
Tue 02:44:35 PM 44.3959 -69.9667 207° Southwest 459 528 34,000  Level FlightAware ADS-B
Tue 02:45:11 PM 44.3171 -70.0234 207° Southwest 459 528 34,000  Level FlightAware ADS-B
Tue 02:45:40 PM 44.2614 -70.0634 207° Southwest 458 527 34,000  Level FlightAware ADS-B (KBGR)
Tue 02:46:20 PM 44.1852 -70.1180 207° Southwest 458 527 34,000  Level FlightAware ADS-B (YSBK / BWU)
Tue 02:46:56 PM 44.1191 -70.1650 207° Southwest 456 525 34,000  Level FlightAware ADS-B (KBGR)
Tue 02:47:27 PM 44.0633 -70.2047 207° Southwest 454 522 34,000  Level FlightAware ADS-B (KBGR)
Tue 02:48:08 PM 43.9818 -70.2627 207° Southwest 454 522 34,000  Level FlightAware ADS-B (KASH)
Tue 02:49:03 PM 43.8802 -70.3346 207° Southwest 454 522 34,000  Level FlightAware ADS-B (KASH)
Tue 02:49:37 PM 43.8160 -70.3799 207° Southwest 455 524 34,000  Level FlightAware ADS-B (KASH)
Tue 02:50:19 PM 43.7380 -70.4348 207° Southwest 456 525 34,000  Level FlightAware ADS-B (KBGR)
Tue 02:51:01 PM 43.6599 -70.4896 207° Southwest 455 524 34,000  Level FlightAware ADS-B (KASH)
Tue 02:51:36 PM 43.5974 -70.5333 207° Southwest 455 524 34,000  Level FlightAware ADS-B (EPKK / KRK)
Tue 02:52:08 PM 43.5334 -70.5780 207° Southwest 455 524 34,000  Level FlightAware ADS-B (KASH)
Tue 02:52:39 PM 43.4769 -70.6172 207° Southwest 455 524 34,000  Level FlightAware ADS-B (EPKK / KRK)
Tue 02:53:10 PM 43.4168 -70.6591 207° Southwest 449 517 34,000  Level FlightAware ADS-B (KASH)
Tue 02:53:44 PM 43.3573 -70.7003 207° Southwest 458 527 34,000  Level FlightAware ADS-B (EPKK / KRK)
Tue 02:54:25 PM 43.2752 -70.7570 207° Southwest 460 529 34,000  Level FlightAware ADS-B (EPKK / KRK)
Tue 02:54:55 PM 43.2189 -70.7958 207° Southwest 454 522 34,000  Level FlightAware ADS-B (KASH)
Tue 02:55:37 PM 43.1406 -70.8498 207° Southwest 461 531 34,000  Level FlightAware ADS-B (EPKK / KRK)
Tue 02:56:07 PM 43.0817 -70.8901 207° Southwest 460 529 34,000  Level FlightAware ADS-B (EPKK / KRK)
Tue 02:56:37 PM 43.0235 -70.9300 207° Southwest 459 528 34,000  Level FlightAware ADS-B (EPKK / KRK)
Tue 02:57:07 PM 42.9697 -70.9668 207° Southwest 458 527 34,000  Level FlightAware ADS-B (EPKK / KRK)
Tue 02:57:38 PM 42.9099 -71.0076 207° Southwest 458 527 34,000  Level FlightAware ADS-B (EPKK / KRK)
Tue 02:58:11 PM 42.8459 -71.0511 207° Southwest 451 519 34,000  Level FlightAware ADS-B (KASH)
Tue 02:58:40 PM 42.7906 -71.0886 207° Southwest 450 518 34,000  Level FlightAware ADS-B (KASH)
Tue 02:59:11 PM 42.7335 -71.1272 207° Southwest 455 524 34,000  Level FlightAware ADS-B (EPKK / KRK)
Tue 02:59:41 PM 42.6786 -71.1644 207° Southwest 454 522 34,000  Level FlightAware ADS-B (EPKK / KRK)
Tue 03:00:11 PM 42.6204 -71.2036 206° Southwest 450 518 34,000  Level FlightAware ADS-B (EPKK / KRK)
Tue 03:00:46 PM 42.5618 -71.2431 206° Southwest 448 516 34,000  Level FlightAware ADS-B (EPKK / KRK)
Tue 03:01:16 PM 42.5002 -71.2845 206° Southwest 446 513 34,000  Level FlightAware ADS-B (EPKK / KRK)
Tue 03:01:46 PM 42.4447 -71.3217 206° Southwest 445 512 34,000  Level FlightAware ADS-B (EPKK / KRK)
Tue 03:02:17 PM 42.3876 -71.3599 206° Southwest 446 513 34,000  Level FlightAware ADS-B (EPKK / KRK)
Tue 03:02:48 PM 42.3315 -71.3974 206° Southwest 447 514 34,000  Level FlightAware ADS-B (EPKK / KRK)
Tue 03:03:57 PM 42.2029 -71.4830 206° Southwest 446 513 34,000  Level FlightAware ADS-B (KASH)
Tue 03:04:35 PM 42.1345 -71.5283 206° Southwest 447 514 34,000  Level FlightAware ADS-B (KOWD)
Tue 03:04:57 PM 42.0933 -71.5601 216° Southwest 434 499 34,000  Level FlightAware ADS-B (KASH)
Tue 03:05:36 PM 42.0349 -71.6262 221° Southwest 435 501 34,000  Level FlightAware ADS-B (KOWD)
Tue 03:06:11 PM 41.9797 -71.6912 222° Southwest 430 495 34,000  Level FlightAware ADS-B (KASH)
Tue 03:06:39 PM 41.9642 -71.7095 216° Southwest 438 504 34,000  Level FlightAware ADS-B (KOWD)
Tue 03:07:10 PM 41.8838 -71.7874 212° Southwest 440 506 34,000  Level FlightAware ADS-B (KASH)
Tue 03:07:50 PM 41.8170 -71.8435 212° Southwest 439 505 34,000  Level FlightAware ADS-B (KOWD)
Tue 03:08:27 PM 41.7536 -71.8971 212° Southwest 436 502 34,000  Level FlightAware ADS-B (KSNC)
Tue 03:08:58 PM 41.6999 -71.9424 212° Southwest 434 499 34,000  Level FlightAware ADS-B (KSNC)
Tue 03:09:36 PM 41.6425 -71.9908 212° Southwest 433 498 34,000  Level FlightAware ADS-B (KSNC)
Tue 03:09:48 PM 41.6147 -72.0142 213° Southwest 426 490 34,000  Level FlightAware ADS-B (KASH)
Tue 03:10:25 PM 41.5715 -72.0507 212° Southwest 431 496 34,000  Level FlightAware ADS-B (KOWD)
Tue 03:10:55 PM 41.5018 -72.1092 212° Southwest 430 495 34,000  Level FlightAware ADS-B (KSNC)
Tue 03:11:26 PM 41.4605 -72.1438 212° Southwest 430 495 34,000  Level FlightAware ADS-B (KOWD)
Tue 03:12:00 PM 41.3973 -72.1967 212° Southwest 431 496 34,000  Level FlightAware ADS-B (KSNC)
Tue 03:12:52 PM 41.3062 -72.2728 212° Southwest 435 501 34,000  Level FlightAware ADS-B (KSNC)
Tue 03:13:30 PM 41.2455 -72.3233 212° Southwest 436 502 34,000  Level FlightAware ADS-B (KSNC)
Tue 03:14:01 PM 41.1868 -72.3721 212° Southwest 435 501 34,000  Level FlightAware ADS-B (KSNC)
Tue 03:14:31 PM 41.1354 -72.4146 212° Southwest 435 501 34,000  Level FlightAware ADS-B (KSNC)
Tue 03:15:02 PM 41.0842 -72.4569 212° Southwest 434 499 34,000  Level FlightAware ADS-B (KSNC)
Tue 03:15:32 PM 41.0325 -72.4997 212° Southwest 432 497 34,000  Level FlightAware ADS-B (KSNC)
Tue 03:16:03 PM 40.9797 -72.5431 212° Southwest 432 497 34,000  Level FlightAware ADS-B (KSNC)
Tue 03:16:36 PM 40.9244 -72.5886 212° Southwest 433 498 34,000  Level FlightAware ADS-B (KSNC)
Tue 03:17:17 PM 40.8584 -72.6428 212° Southwest 433 498 34,000  Level FlightAware ADS-B (KSNC)
Tue 03:17:49 PM 40.8018 -72.6891 212° Southwest 433 498 34,000  Level FlightAware ADS-B (KSNC)
Tue 03:18:28 PM 40.7340 -72.7446 212° Southwest 432 497 34,000  Level FlightAware ADS-B (KSNC)
Tue 03:19:07 PM 40.6676 -72.7987 212° Southwest 433 498 34,000  Level FlightAware ADS-B (KSNC)
Tue 03:19:47 PM 40.5993 -72.8542 212° Southwest 434 499 34,000  Level FlightAware ADS-B (KSNC)
Tue 03:20:18 PM 40.5517 -72.8930 212° Southwest 434 499 34,000  Level FlightAware ADS-B (KSNC)
Tue 03:20:48 PM 40.4967 -72.9375 212° Southwest 434 499 34,000  Level FlightAware ADS-B (KSNC)
Tue 03:21:19 PM 40.4428 -72.9811 212° Southwest 434 499 34,000  Level FlightAware ADS-B (KSNC)
Tue 03:21:49 PM 40.3908 -73.0231 212° Southwest 433 498 34,000  Level FlightAware ADS-B (KSNC)
Tue 03:22:31 PM 40.3204 -73.0798 212° Southwest 433 498 34,000  Level FlightAware ADS-B (KSNC)
Tue 03:23:11 PM 40.2518 -73.1349 212° Southwest 435 501 34,000  Level FlightAware ADS-B (KSNC)
Tue 03:23:49 PM 40.1871 -73.1867 212° Southwest 435 501 34,000  Level FlightAware ADS-B (KSNC)
Tue 03:24:28 PM 40.1195 -73.2409 212° Southwest 434 499 34,000  Level FlightAware ADS-B (KPHL)
Tue 03:25:00 PM 40.0694 -73.2872 219° Southwest 431 496 34,000  Level FlightAware ADS-B (KSNC)
Tue 03:25:38 PM 40.0103 -73.3537 221° Southwest 431 496 34,000  Level FlightAware ADS-B (KSNC)
Tue 03:26:09 PM 39.9626 -73.4080 221° Southwest 432 497 34,000  Level FlightAware ADS-B (KSNC)
Tue 03:26:41 PM 39.9156 -73.4609 221° Southwest 432 497 34,000  Level FlightAware ADS-B (KSNC)
Tue 03:27:11 PM 39.8706 -73.5110 221° Southwest 431 496 34,000  Level FlightAware ADS-B (KSNC)
Tue 03:27:42 PM 39.8222 -73.5650 221° Southwest 431 496 34,000  Level FlightAware ADS-B (KSNC)
Tue 03:28:14 PM 39.7737 -73.6189 221° Southwest 432 497 34,000  Level FlightAware ADS-B (KPHL)
Tue 03:28:47 PM 39.7388 -73.6576 221° Southwest 431 496 34,000  Level FlightAware ADS-B (KPHL)
Tue 03:29:21 PM 39.6994 -73.7013 221° Southwest 431 496 34,000  Level FlightAware ADS-B (KSNC)
Tue 03:29:52 PM 39.6259 -73.7826 221° Southwest 430 495 34,000  Level FlightAware ADS-B (KSNC)
Tue 03:30:32 PM 39.5655 -73.8491 221° Southwest 428 493 34,000  Level FlightAware ADS-B (KSNC)
Tue 03:31:02 PM 39.5201 -73.8992 220° Southwest 431 496 34,000  Level FlightAware ADS-B (KPHL)
Tue 03:31:34 PM 39.4712 -73.9529 220° Southwest 432 497 34,000  Level FlightAware ADS-B (KPHL)
Tue 03:32:04 PM 39.4274 -74.0010 220° Southwest 432 497 34,000  Level FlightAware ADS-B (KPHL)
Tue 03:33:12 PM 39.3841 -74.0483 220° Southwest 434 499 34,000  Level FlightAware ADS-B (KPHL)
Tue 03:33:54 PM 39.2585 -74.1854 220° Southwest 432 497 34,000  Level FlightAware ADS-B (KPHL)
Tue 03:34:25 PM 39.2202 -74.2271 220° Southwest 432 497 34,000  Level FlightAware ADS-B (KPHL)
Tue 03:35:00 PM 39.1583 -74.2942 220° Southwest 433 498 34,000  Level FlightAware ADS-B (KPHL)
Tue 03:36:17 PM 39.0389 -74.4234 220° Southwest 435 501 34,000  Level FlightAware ADS-B (KPHL)
Tue 03:36:57 PM 38.9780 -74.4890 220° Southwest 435 501 34,000  Level FlightAware ADS-B (KPHL)
Tue 03:37:55 PM 38.8890 -74.5847 220° Southwest 434 499 34,000  Level FlightAware ADS-B (KPHL)
Tue 03:39:07 PM 38.8154 -74.6634 220° Southwest 434 499 34,000  Level FlightAware ADS-B
Tue 03:39:42 PM 38.7238 -74.7612 220° Southwest 432 497 34,000  Level FlightAware ADS-B
Tue 03:40:40 PM 38.6343 -74.8565 220° Southwest 431 496 34,000  Level FlightAware ADS-B (EGAA / BFS)
Tue 03:41:12 PM 38.5846 -74.9093 220° Southwest 431 496 34,000  Level FlightAware ADS-B (EGAA / BFS)
Tue 03:41:56 PM 38.5775 -74.9169 220° Southwest 433 498 34,000  Level FlightAware ADS-B (KPHL)
Tue 03:43:05 PM 38.4270 -75.0720 209° Southwest 432 497 34,000  Level FlightAware ADS-B (EGAA / BFS)
Tue 03:43:46 PM 38.3375 -75.1367 210° Southwest 431 496 34,000  Level FlightAware ADS-B (EGAA / BFS)
Tue 03:44:27 PM 38.2672 -75.1879 210° Southwest 432 497 34,000  Level FlightAware ADS-B (EGAA / BFS)
Tue 03:44:59 PM 38.2192 -75.2229 210° Southwest 431 496 34,000  Level FlightAware ADS-B (KPHL)
Tue 03:45:39 PM 38.1427 -75.2783 210° Southwest 431 496 34,000  Level FlightAware ADS-B (EGAA / BFS)
Tue 03:46:12 PM 38.1608 -75.2651 210° Southwest 430 495 34,000  Level FlightAware ADS-B (KPHL)
Tue 03:46:45 PM 38.0326 -75.3578 210° Southwest 428 493 34,000  Level FlightAware ADS-B (KPHL)
Tue 03:47:31 PM 37.9496 -75.4177 210° Southwest 426 490 34,000  Level FlightAware ADS-B (EGAA / BFS)
Tue 03:48:09 PM 37.8849 -75.4643 210° Southwest 426 490 34,000  Level FlightAware ADS-B (EGAA / BFS)
Tue 03:48:53 PM 37.8264 -75.5063 210° Southwest 425 489 34,000  Level FlightAware ADS-B (EGAA / BFS)
Tue 03:50:16 PM 37.6661 -75.6211 210° Southwest 426 490 34,000  Level FlightAware ADS-B
Tue 03:50:47 PM 37.6202 -75.6538 210° Southwest 428 493 34,000  Level FlightAware ADS-B (EGAA / BFS)
Tue 03:52:13 PM 37.4649 -75.7643 210° Southwest 426 490 34,000  Level FlightAware ADS-B
Tue 03:53:16 PM 37.3574 -75.8405 210° Southwest 422 486 34,000  Level FlightAware ADS-B
Tue 03:53:56 PM 37.2899 -75.8882 210° Southwest 423 487 34,000  Level FlightAware ADS-B
Tue 03:54:36 PM 37.2200 -75.9375 210° Southwest 424 488 34,000  Level FlightAware ADS-B
Tue 03:55:17 PM 37.1523 -75.9852 210° Southwest 425 489 34,000  Level FlightAware ADS-B
Tue 03:56:16 PM 37.0496 -76.0573 210° Southwest 428 493 34,000  Level FlightAware ADS-B
Tue 03:56:56 PM 36.9795 -76.1063 210° Southwest 428 493 34,000  Level FlightAware ADS-B
Tue 03:57:34 PM 36.9136 -76.1524 210° Southwest 430 495 34,000  Level FlightAware ADS-B
Tue 03:58:36 PM 36.8047 -76.2282 210° Southwest 432 497 34,000  Level FlightAware ADS-B
Tue 04:00:26 PM 36.6134 -76.3609 210° Southwest 431 496 34,000  Level FlightAware ADS-B
Tue 04:01:51 PM 36.4658 -76.4627 210° Southwest 432 497 34,000  Level FlightAware ADS-B
Tue 04:03:17 PM 36.3149 -76.5664 209° Southwest 433 498 34,000  Level FlightAware ADS-B
Tue 04:04:52 PM 36.1491 -76.6798 209° Southwest 433 498 34,000  Level FlightAware ADS-B
Tue 04:05:36 PM 36.0705 -76.7333 209° Southwest 431 496 34,000  Level FlightAware ADS-B
Tue 04:06:36 PM 35.9728 -76.7958 209° Southwest 441 507 34,000  Level Washington Center
Tue 04:07:34 PM 35.8697 -76.8686 210° Southwest 441 507 34,000  Level Washington Center
Tue 04:08:35 PM 35.7625 -76.9386 208° Southwest 441 507 34,000  Level Washington Center
Tue 04:09:36 PM 35.6594 -77.0108 210° Southwest 441 507 34,000  Level Washington Center
Tue 04:10:36 PM 35.5564 -77.0806 209° Southwest 436 502 34,000  Level Washington Center
Tue 04:11:37 PM 35.4511 -77.1500 208° Southwest 436 502 34,000  Level Washington Center
Tue 04:12:35 PM 35.3417 -77.2217 208° Southwest 441 507 34,000  Level Washington Center
Tue 04:13:36 PM 35.2383 -77.2908 209° Southwest 441 507 34,000  Level Washington Center
Tue 04:14:34 PM 35.1353 -77.3622 210° Southwest 441 507 34,000  Level Washington Center
Tue 04:15:35 PM 35.0297 -77.4311 208° Southwest 441 507 34,000  Level Washington Center
Tue 04:16:36 PM 34.9244 -77.4994 208° Southwest 441 507 34,000  Level Washington Center
Tue 04:17:36 PM 34.8211 -77.5706 209° Southwest 435 501 34,000  Level Washington Center
Tue 04:18:34 PM 34.7156 -77.6386 208° Southwest 435 501 34,000  Level Washington Center
Tue 04:19:35 PM 34.6122 -77.7067 208° Southwest 435 501 34,000  Level Washington Center
Tue 04:20:36 PM 34.5067 -77.7769 209° Southwest 435 501 34,000  Level Washington Center
Tue 04:21:37 PM 34.4031 -77.8447 208° Southwest 435 501 34,000  Level Washington Center
Tue 04:23:10 PM 34.2242 -77.9153 198° South 427 491 34,000  Level Jacksonville Center
Tue 04:24:10 PM 34.1044 -77.9447 192° South 432 497 34,000  Level Jacksonville Center
Tue 04:25:10 PM 33.9889 -77.9761 193° South 432 497 34,000  Level Jacksonville Center
Tue 04:26:10 PM 33.8733 -78.0128 195° South 429 494 34,000  Level Jacksonville Center
Tue 04:27:10 PM 33.7578 -78.0442 193° South 429 494 34,000  Level Jacksonville Center
Tue 04:28:10 PM 33.6506 -78.0775 195° South 434 499 34,000  Level Jacksonville Center
Tue 04:29:10 PM 33.5350 -78.1111 194° South 434 499 34,000  Level Jacksonville Center
Tue 04:30:10 PM 33.4194 -78.1447 194° South 429 494 34,000  Level Jacksonville Center
Tue 04:31:10 PM 33.3039 -78.1758 193° South 429 494 34,000  Level Jacksonville Center
Tue 04:32:10 PM 33.1881 -78.2092 194° South 429 494 34,000  Level Jacksonville Center
Tue 04:33:10 PM 33.0725 -78.2425 194° South 429 494 34,000  Level Jacksonville Center
Tue 04:34:10 PM 32.9589 -78.2706 192° South 429 494 34,000  Level Jacksonville Center
Tue 04:35:10 PM 32.8411 -78.3039 193° South 429 494 34,000  Level Jacksonville Center
Tue 04:36:10 PM 32.7253 -78.3369 194° South 429 494 34,000  Level Jacksonville Center
Tue 04:37:10 PM 32.6097 -78.3700 194° South 429 494 34,000  Level Jacksonville Center
Tue 04:38:10 PM 32.4939 -78.3978 191° South 429 494 34,000  Level Jacksonville Center
Tue 04:39:10 PM 32.3761 -78.4331 194° South 429 494 34,000  Level Jacksonville Center
Tue 04:40:10 PM 32.2625 -78.4706 196° South 429 494 34,000  Level Jacksonville Center
Tue 04:41:10 PM 32.1450 -78.5081 195° South 434 499 34,000  Level Jacksonville Center
Tue 04:42:10 PM 32.0292 -78.5406 193° South 434 499 34,000  Level Jacksonville Center
Tue 04:43:10 PM 31.9133 -78.5731 193° South 429 494 34,000  Level Jacksonville Center
Tue 04:44:10 PM 31.7936 -78.6081 194° South 429 494 34,000  Level Jacksonville Center
Tue 04:45:10 PM 31.6797 -78.6378 193° South 429 494 34,000  Level Jacksonville Center
Tue 04:46:10 PM 31.5597 -78.6747 195° South 429 494 34,000  Level Jacksonville Center
Tue 04:47:10 PM 31.4442 -78.7092 194° South 429 494 34,000  Level Jacksonville Center
Tue 04:48:10 PM 31.3283 -78.7436 194° South 429 494 34,000  Level Jacksonville Center
Tue 04:49:10 PM 31.2125 -78.7756 193° South 429 494 34,000  Level Jacksonville Center
Tue 04:50:10 PM 31.0964 -78.8047 192° South 429 494 34,000  Level Jacksonville Center
Tue 04:51:10 PM 30.9683 -78.8442 195° South 437 503 34,000  Level Jacksonville Center
Tue 04:52:10 PM 30.8503 -78.8758 193° South 438 504 34,000  Level Jacksonville Center
Tue 04:53:10 PM 30.7367 -78.9097 194° South 425 489 34,000  Level Jacksonville Center
Tue 04:54:10 PM 30.6206 -78.9411 193° South 433 498 34,000  Level Jacksonville Center
Tue 04:54:55 PM 30.5317 -78.9661 194° South 430 495 34,000  Level Miami Center
Tue 04:55:57 PM 30.4161 -78.9992 194° South 429 494 34,000  Level Miami Center
Tue 04:56:59 PM 30.3017 -79.0478 200° South 434 499 34,000  Level Miami Center
Tue 04:58:01 PM 30.1914 -79.0972 201° Southwest 432 497 34,000  Level Miami Center
Tue 04:59:02 PM 30.0800 -79.1458 201° Southwest 430 495 34,000  Level Miami Center
Tue 05:00:04 PM 29.9603 -79.1975 201° Southwest 430 495 34,000  Level Miami Center
Tue 05:01:06 PM 29.8500 -79.2450 200° South 428 493 34,000  Level Miami Center
Tue 05:02:08 PM 29.7381 -79.2925 200° South 428 493 34,000  Level Miami Center
Tue 05:03:09 PM 29.6275 -79.3408 201° Southwest 427 491 34,000  Level Miami Center
Tue 05:04:11 PM 29.5164 -79.3881 200° South 426 490 34,000  Level Miami Center
Tue 05:05:13 PM 29.3839 -79.4442 200° South 425 489 34,000  Level Miami Center
Tue 05:10:48 PM 28.7630 -79.6746 205° Southwest 422 486 34,000  Level FlightAware ADS-B
Tue 05:11:23 PM 28.6999 -79.7076 205° Southwest 423 487 34,000  Level FlightAware ADS-B
Tue 05:13:31 PM 28.4725 -79.8260 205° Southwest 425 489 34,000  Level FlightAware ADS-B
Tue 05:14:14 PM 28.3942 -79.8666 205° Southwest 424 488 34,000  Level FlightAware ADS-B
Tue 05:14:55 PM 28.3239 -79.9030 205° Southwest 422 486 34,000  Level FlightAware ADS-B
Tue 05:15:36 PM 28.2490 -79.9418 205° Southwest 423 487 34,000  Level FlightAware ADS-B
Tue 05:16:19 PM 28.1714 -79.9819 205° Southwest 423 487 34,000  Level FlightAware ADS-B
Tue 05:17:42 PM 28.0459 -80.0466 205° Southwest 420 483 34,000  Level FlightAware ADS-B
Tue 05:18:28 PM 27.9446 -80.0987 205° Southwest 419 482 34,000  Level FlightAware ADS-B
Tue 05:19:11 PM 27.8663 -80.1389 205° Southwest 421 484 34,000  Level FlightAware ADS-B
Tue 05:20:14 PM 27.7551 -80.1958 205° Southwest 422 486 34,000  Level FlightAware ADS-B
Tue 05:20:53 PM 27.6845 -80.2319 205° Southwest 422 486 34,000  Level FlightAware ADS-B
Tue 05:21:37 PM 27.6100 -80.2699 204° Southwest 423 487 34,000  Level FlightAware ADS-B
Tue 05:22:19 PM 27.5424 -80.3044 205° Southwest 422 486 34,000  Level FlightAware ADS-B (RJTF)
Tue 05:23:21 PM 27.4210 -80.3661 204° Southwest 427 491 34,000  Level FlightAware ADS-B
Tue 05:24:00 PM 27.3532 -80.4006 204° Southwest 425 489 34,000  Level FlightAware ADS-B
Tue 05:24:33 PM 27.3127 -80.4211 205° Southwest 425 489 34,000  Level FlightAware ADS-B (RJTF)
Tue 05:25:21 PM 27.2057 -80.4754 204° Southwest 426 490 34,000  Level FlightAware ADS-B
Tue 05:26:05 PM 27.1284 -80.5145 205° Southwest 425 489 34,000  Level FlightAware ADS-B (RJTF)
Tue 05:26:36 PM 27.0731 -80.5425 204° Southwest 427 491 34,000  Level FlightAware ADS-B (RJTF)
Tue 05:27:10 PM 27.0089 -80.5748 204° Southwest 426 490 34,000  Level FlightAware ADS-B
Tue 05:27:43 PM 26.9847 -80.5870 204° Southwest 427 491 34,000  Level FlightAware ADS-B
Tue 05:28:20 PM 26.8829 -80.6381 204° Southwest 430 495 34,000  Level FlightAware ADS-B (RJTF)
Tue 05:28:51 PM 26.8305 -80.6645 204° Southwest 436 502 34,000  Level FlightAware ADS-B (RJTF)
Tue 05:29:35 PM 26.7460 -80.7069 204° Southwest 438 504 34,000  Level FlightAware ADS-B (RJTF)
Tue 05:30:06 PM 26.7006 -80.7296 204° Southwest 436 502 34,000  Level FlightAware ADS-B (RJTF)
Tue 05:30:50 PM 26.6197 -80.7701 204° Southwest 434 499 34,000  Level FlightAware ADS-B (RJTF)
Tue 05:31:21 PM 26.5531 -80.8035 204° Southwest 436 502 34,000  Level FlightAware ADS-B (RJTF)
Tue 05:31:51 PM 26.5008 -80.8296 204° Southwest 434 499 34,000  Level FlightAware ADS-B (RJTF)
Tue 05:32:37 PM 26.4221 -80.8689 204° Southwest 434 499 34,000  Level FlightAware ADS-B (RJTF)
Tue 05:33:20 PM 26.3428 -80.9084 204° Southwest 436 502 34,000  Level FlightAware ADS-B (RJTF)
Tue 05:34:34 PM 26.1951 -80.9818 204° Southwest 436 502 34,000  Level FlightAware ADS-B
Tue 05:35:06 PM 26.1389 -81.0097 204° Southwest 436 502 34,000  Level FlightAware ADS-B (RJTF)
Tue 05:36:01 PM 26.1951 -80.9818 204° Southwest 437 503 34,000  Level FlightAware ADS-B
Tue 05:37:06 PM 25.9303 -81.1136 204° Southwest 433 498 34,000  Level Miami Center
Tue 05:38:08 PM 25.8197 -81.1669 203° Southwest 433 498 34,000  Level Miami Center
Tue 05:39:10 PM 25.7108 -81.2225 205° Southwest 433 498 34,000  Level Miami Center
Tue 05:40:11 PM 25.5950 -81.3119 215° Southwest 427 491 34,000  Level Miami Center
Tue 05:41:13 PM 25.4964 -81.3864 214° Southwest 427 491 34,000  Level Miami Center
Tue 05:42:15 PM 25.4008 -81.4594 215° Southwest 425 489 34,000  Level Miami Center
Tue 05:43:17 PM 25.3053 -81.5333 215° Southwest 423 487 34,000  Level Miami Center
Tue 05:44:18 PM 25.2097 -81.6056 214° Southwest 420 483 34,000  Level Miami Center
Tue 05:45:20 PM 25.1147 -81.6797 215° Southwest 420 483 34,000  Level Miami Center
Tue 05:46:22 PM 25.0192 -81.7519 214° Southwest 419 482 34,000 -581 Level Miami Center
Tue 05:47:24 PM 24.9044 -81.8386 214° Southwest 419 482 32,800 -1,171 Descending Miami Center
Tue 05:48:25 PM 24.8061 -81.9139 215° Southwest 427 491 31,600 -1,171 Descending Miami Center
Tue 05:49:27 PM 24.7069 -81.9889 214° Southwest 429 494 30,400 -1,161 Descending Miami Center
Tue 05:50:29 PM 24.6103 -82.0617 214° Southwest 428 493 29,200 -1,171 Descending Miami Center
Tue 05:51:30 PM 24.5150 -82.1336 214° Southwest 420 483 28,000 -1,171 Descending Miami Center
Tue 05:52:32 PM 24.4217 -82.2033 214° Southwest 411 473 26,800 -1,161 Descending Miami Center
Tue 05:53:34 PM 24.3314 -82.2733 215° Southwest 402 463 25,600 -1,258 Descending Miami Center
Tue 05:54:36 PM 24.2200 -82.3542 214° Southwest 400 460 24,200 -1,317 Descending Miami Center
Tue 05:55:37 PM 24.1289 -82.4231 215° Southwest 394 453 22,900 -1,073 Descending Miami Center
Tue 05:56:39 PM 24.0447 -82.4864 215° Southwest 373 429 22,000 -677 Descending Miami Center
Tue 05:57:41 PM 23.9644 -82.5456 214° Southwest 355 409 21,500 -484 Descending Miami Center
Tue 05:59:00 PM 23.8159 -82.4988 164° South  Level FlightAware Approximate
Tue 06:06:00 PM 22.9986 -82.4000 180° South  Level FlightAware Approximate
Tue 06:07:00 PM 22.9891 -82.4091 180° South  Level Estimated
Tue 06:08:00 PM 22.9891 -82.4091 180° South  Level Estimated
Tue 06:09:00 PM 22.9891 -82.4091 180° South  Level Estimated
Tue 06:10:00 PM 22.9891 -82.4091 180° South  Level Estimated
Tue 06:11:00 PM 22.9891 -82.4091 180° South  Level Estimated
Tue 06:12:00 PM 22.9891 -82.4091 180° South  Level Estimated
Tue 06:13:00 PM 22.9891 -82.4091 180° South  Level Estimated
Tue 06:14:00 PM 22.9891 -82.4091 180° South  Level Estimated
Tue 06:15:00 PM 22.9891 -82.4091 180° South  Level Estimated
Tue 06:16:00 PM 22.9891 -82.4091 180° South  Level Estimated
Tue 06:17:00 PM 22.9891 -82.4091 180° South  Level Estimated
Tue 06:18:00 PM 22.9891 -82.4091 180° South  Level Estimated
Tue 06:19:00 PM 22.9891 -82.4091 180° South  Level Estimated
Tue 06:20:00 PM 22.9891 -82.4091 180° South  Level Estimated
Tue 06:21:00 PM 22.9891 -82.4091 180° South  Level Estimated
Tue 06:22:00 PM 22.9891 -82.4091 180° South  Level Estimated
Tue 06:23:00 PM 22.9891 -82.4091 180° South  Level Estimated
Tue 06:24:00 PM 22.9891 -82.4091 180° South  Level Estimated
Tue 06:25:00 PM 22.9891 -82.4091 180° South  Level Estimated
Tue 06:26:00 PM 22.9891 -82.4091 180° South  Level Estimated
Tue 06:27:00 PM 22.9891 -82.4091 180° South  Level Estimated
Tue 06:28:00 PM 22.9891 -82.4091 180° South  Level Estimated

Login

Don't have an account? Register now (free) for customized features, flight alerts, and more!